Clyde S. Van Enkevort — WDJ4194 — position and weather

sailwx.info

Track history (hours):
 
Tides and Currents Weather Stations Pressure Air Temp Water Temp Dewpoint Dewpoint Depression Visibility Wind Speed Wind Dir Waves Ship Positions

Clyde S. Van Enkevort

Owner: Van Enkevort Tug & Barge Inc., Escanaba, MI. More information available from US FCC via Universal Licensing System and Coast Guard Vessel Documentation Center.

Last reported at 2017-Dec-16 04:53 UTC. Time now 2017-Dec-16 11:08 UTC.
Position N 45°23' W 083°17'.

Length 30 m; draft 6.2 m.

Type: Towing. MMSI: 338888000.

Date/timePositionNaut miles runAvg speedWind from/ knotsBaromVisibWave heightAir tempDewpointWater temp
2017-Dec-16 04:53N 45°23' W 083°17'411.2
2017-Dec-16 04:30N 45°27' W 083°21'611.1
2017-Dec-16 04:00N 45°31' W 083°25'611.2
2017-Dec-16 03:30N 45°35' W 083°30'611.2
2017-Dec-16 03:00N 45°40' W 083°35'611.2
2017-Dec-16 02:30N 45°44' W 083°40'337 8.8
2017-Dec-14 12:20N 47°01' W 091°36'3 9.6
2017-Dec-14 12:00N 47°00' W 091°40'0 0.9
2017-Dec-14 11:29N 47°01' W 091°40'0 0.0
2017-Dec-14 10:49N 47°01' W 091°40'0 0.0
2017-Dec-14 10:28N 47°01' W 091°40'0 0.0
2017-Dec-14 10:00N 47°01' W 091°40'0 0.0
2017-Dec-14 09:24N 47°01' W 091°40'0 0.0
2017-Dec-14 08:53N 47°01' W 091°40'0 0.0
2017-Dec-14 08:30N 47°01' W 091°40'0 0.0
2017-Dec-14 07:58N 47°01' W 091°40'0 0.0
2017-Dec-14 07:30N 47°01' W 091°40'0 0.0
2017-Dec-14 06:18N 47°01' W 091°40'0 0.0
2017-Dec-14 05:51N 47°01' W 091°40'0 0.0
2017-Dec-14 05:28N 47°01' W 091°40'0 0.0
2017-Dec-14 04:55N 47°01' W 091°40'0 0.0
2017-Dec-14 04:30N 47°01' W 091°40'0 0.0
2017-Dec-14 03:59N 47°01' W 091°40'0 0.7
2017-Dec-14 03:30N 47°01' W 091°40'1 1.4
2017-Dec-14 03:00N 46°60' W 091°40'0 0.5
2017-Dec-14 02:30N 46°60' W 091°41'0 0.5
2017-Dec-14 02:00N 46°60' W 091°40'1 1.6
2017-Dec-14 01:30N 46°60' W 091°39'335 7.1
2017-Dec-12 02:06N 45°47' W 083°45'211.5
2017-Dec-12 01:55N 45°46' W 083°43'511.5
2017-Dec-12 01:30N 45°42' W 083°39'611.6
2017-Dec-12 01:00N 45°37' W 083°35'911.6
2017-Dec-12 00:12N 45°29' W 083°28'311.6
2017-Dec-11 23:57N 45°26' W 083°25'  
2017-Dec-08 23:44N 45°27' W 083°22'311.0
2017-Dec-08 23:30N 45°29' W 083°24'611.2
2017-Dec-08 23:00N 45°33' W 083°29'511.0
2017-Dec-08 22:30N 45°38' W 083°34'511.0
2017-Dec-08 22:00N 45°42' W 083°38'611.1
2017-Dec-08 21:29N 45°47' W 083°43'  
Track history (hours):
 
Tides and Currents Weather Stations Pressure Air Temp Water Temp Dewpoint Dewpoint Depression Visibility Wind Speed Wind Dir Waves Ship Positions

Clyde S. Van Enkevort

Owner: Van Enkevort Tug & Barge Inc., Escanaba, MI. More information available from US FCC via Universal Licensing System and Coast Guard Vessel Documentation Center.

Last reported at 2017-Dec-16 04:53 UTC. Time now 2017-Dec-16 11:08 UTC.
Position N 45°23' W 083°17'.

Length 30 m; draft 6.2 m.

Type: Towing. MMSI: 338888000.

Date/timePositionNaut miles runAvg speedWind from/ knotsBaromVisibWave heightAir tempDewpointWater temp
2017-Dec-16 04:53N 45°23' W 083°17'411.2
2017-Dec-16 04:30N 45°27' W 083°21'611.1
2017-Dec-16 04:00N 45°31' W 083°25'611.2
2017-Dec-16 03:30N 45°35' W 083°30'611.2
2017-Dec-16 03:00N 45°40' W 083°35'611.2
2017-Dec-16 02:30N 45°44' W 083°40'337 8.8
2017-Dec-14 12:20N 47°01' W 091°36'3 9.6
2017-Dec-14 12:00N 47°00' W 091°40'0 0.9
2017-Dec-14 11:29N 47°01' W 091°40'0 0.0
2017-Dec-14 10:49N 47°01' W 091°40'0 0.0
2017-Dec-14 10:28N 47°01' W 091°40'0 0.0
2017-Dec-14 10:00N 47°01' W 091°40'0 0.0
2017-Dec-14 09:24N 47°01' W 091°40'0 0.0
2017-Dec-14 08:53N 47°01' W 091°40'0 0.0
2017-Dec-14 08:30N 47°01' W 091°40'0 0.0
2017-Dec-14 07:58N 47°01' W 091°40'0 0.0
2017-Dec-14 07:30N 47°01' W 091°40'0 0.0
2017-Dec-14 06:18N 47°01' W 091°40'0 0.0
2017-Dec-14 05:51N 47°01' W 091°40'0 0.0
2017-Dec-14 05:28N 47°01' W 091°40'0 0.0
2017-Dec-14 04:55N 47°01' W 091°40'0 0.0
2017-Dec-14 04:30N 47°01' W 091°40'0 0.0
2017-Dec-14 03:59N 47°01' W 091°40'0 0.7
2017-Dec-14 03:30N 47°01' W 091°40'1 1.4
2017-Dec-14 03:00N 46°60' W 091°40'0 0.5
2017-Dec-14 02:30N 46°60' W 091°41'0 0.5
2017-Dec-14 02:00N 46°60' W 091°40'1 1.6
2017-Dec-14 01:30N 46°60' W 091°39'335 7.1
2017-Dec-12 02:06N 45°47' W 083°45'211.5
2017-Dec-12 01:55N 45°46' W 083°43'511.5
2017-Dec-12 01:30N 45°42' W 083°39'611.6
2017-Dec-12 01:00N 45°37' W 083°35'911.6
2017-Dec-12 00:12N 45°29' W 083°28'311.6
2017-Dec-11 23:57N 45°26' W 083°25'  
2017-Dec-08 23:44N 45°27' W 083°22'311.0
2017-Dec-08 23:30N 45°29' W 083°24'611.2
2017-Dec-08 23:00N 45°33' W 083°29'511.0
2017-Dec-08 22:30N 45°38' W 083°34'511.0
2017-Dec-08 22:00N 45°42' W 083°38'611.1
2017-Dec-08 21:29N 45°47' W 083°43'  

Dump ship's entire track history